Date,TemperatureHighF,TemperatureAvgF,TemperatureLowF,DewpointHighF,DewpointAvgF,DewpointLowF,HumidityHigh,HumidityAvg,HumidityLow,PressureMaxIn,PressureMinIn,WindSpeedMaxMPH,WindSpeedAvgMPH,GustSpeedMaxMPH,PrecipitationSumIn
2013-9-1,86.2,75.9,68.7,71.4,69.3,67.6,98,82,57,29.82,29.74,7,0,8,0.00
2013-9-2,87.6,76.6,69.6,72.3,69.8,65.7,98,81,55,29.83,29.75,8,1,13,0.00
2013-9-3,79.9,70.8,61.3,66.7,61.5,55.9,98,74,49,30.05,29.81,8,1,14,0.00
2013-9-4,80.8,65.4,52.5,63.3,57.2,52.0,99,78,45,30.13,30.04,7,0,7,0.00
2013-9-5,84.6,69.4,55.0,68.0,60.7,54.7,100,78,46,30.16,30.09,5,0,8,0.00
2013-9-6,79.9,67.0,55.2,61.7,53.7,48.0,93,66,34,30.22,30.09,6,0,8,0.00
2013-9-7,84.4,67.0,50.7,66.7,57.3,50.2,100,76,34,30.11,29.95,6,0,8,0.00
2013-9-8,88.9,74.9,63.1,72.1,66.7,61.9,97,79,47,29.96,29.90,5,0,10,0.00
2013-9-9,90.3,76.5,65.1,72.7,68.8,64.8,99,80,47,30.04,29.96,7,1,10,0.00
2013-9-10,90.7,78.7,69.6,74.5,71.0,68.4,98,80,53,30.14,30.02,8,1,10,0.00
2013-9-11,90.0,78.6,70.3,73.8,71.6,69.8,99,81,54,30.15,30.01,8,0,11,0.00
2013-9-12,86.7,73.7,67.5,72.9,70.0,66.9,98,89,60,30.01,29.82,12,1,21,0.48
2013-9-13,68.7,63.5,53.4,67.6,54.1,45.7,98,74,48,30.04,29.81,12,2,14,0.02
2013-9-14,69.8,57.5,46.8,52.0,48.1,44.1,96,74,43,30.15,30.04,6,0,8,0.00
2013-9-15,78.4,62.1,46.8,62.4,55.1,46.6,100,81,50,30.16,30.03,10,1,13,0.01
2013-9-16,71.2,63.5,55.0,62.8,58.7,54.0,98,85,64,30.25,30.04,5,0,10,0.04
2013-9-17,75.0,62.1,51.3,59.0,54.8,50.4,99,80,49,30.31,30.15,11,1,12,0.00
2013-9-18,67.1,61.7,54.9,63.1,59.2,54.0,98,92,79,30.17,30.09,5,0,8,0.01
2013-9-19,76.8,67.3,60.3,70.5,65.6,59.9,100,95,80,30.11,29.97,5,0,6,0.19
2013-9-20,85.3,73.8,65.3,70.3,67.4,64.9,100,83,53,30.01,29.80,6,1,13,0.00
2013-9-21,71.1,66.1,57.0,67.6,63.8,56.5,99,93,71,29.81,29.65,12,0,16,0.88
2013-9-22,67.3,57.7,49.3,56.3,52.6,48.4,99,84,58,29.99,29.81,6,0,6,0.00
2013-9-23,68.9,56.2,43.9,52.5,48.2,43.3,100,77,49,30.10,29.99,7,1,8,0.01
2013-9-24,74.8,57.9,41.9,60.6,51.4,41.4,100,81,56,30.09,29.91,6,0,6,0.00
2013-9-25,73.2,61.6,51.6,63.0,57.2,51.3,99,87,61,29.91,29.84,3,0,7,0.00
2013-9-26,77.4,63.3,55.6,64.6,59.5,55.6,100,89,57,30.04,29.88,6,0,10,0.00
2013-9-27,80.1,63.9,54.0,62.8,55.8,50.7,100,80,40,30.15,30.04,6,0,6,0.01
2013-9-28,79.3,62.6,51.3,64.0,55.9,50.7,100,82,42,30.21,30.07,6,0,7,0.01
2013-9-29,76.1,64.0,53.4,63.7,58.7,52.9,99,85,56,30.09,29.98,7,0,8,0.00
2013-9-30,75.9,65.0,57.9,64.4,60.8,57.6,100,88,57,30.05,29.95,5,0,8,0.00